sensor_id;sensor_type;location;lat;lon;timestamp;temperature;humidity
43987;DHT22;29650;47.378;8.300;2023-04-24T00:02:02;12.00;94.10
43987;DHT22;29650;47.378;8.300;2023-04-24T00:04:29;11.80;94.30
43987;DHT22;29650;47.378;8.300;2023-04-24T00:06:58;11.80;94.80
43987;DHT22;29650;47.378;8.300;2023-04-24T00:09:25;11.80;95.20
43987;DHT22;29650;47.378;8.300;2023-04-24T00:11:52;11.70;95.00
43987;DHT22;29650;47.378;8.300;2023-04-24T00:14:20;11.70;94.90
43987;DHT22;29650;47.378;8.300;2023-04-24T00:16:47;11.70;94.70
43987;DHT22;29650;47.378;8.300;2023-04-24T00:19:14;11.60;94.70
43987;DHT22;29650;47.378;8.300;2023-04-24T00:21:41;11.50;95.00
43987;DHT22;29650;47.378;8.300;2023-04-24T00:24:09;11.50;94.40
43987;DHT22;29650;47.378;8.300;2023-04-24T00:26:36;11.60;95.10
43987;DHT22;29650;47.378;8.300;2023-04-24T00:29:03;11.60;94.60
43987;DHT22;29650;47.378;8.300;2023-04-24T00:31:30;11.50;94.30
43987;DHT22;29650;47.378;8.300;2023-04-24T00:33:57;11.60;94.80
43987;DHT22;29650;47.378;8.300;2023-04-24T00:36:24;11.70;94.70
43987;DHT22;29650;47.378;8.300;2023-04-24T00:38:52;11.70;94.40
43987;DHT22;29650;47.378;8.300;2023-04-24T00:41:21;11.60;93.80
43987;DHT22;29650;47.378;8.300;2023-04-24T00:43:48;11.70;93.70
43987;DHT22;29650;47.378;8.300;2023-04-24T00:46:16;11.70;92.60
43987;DHT22;29650;47.378;8.300;2023-04-24T00:48:43;11.50;93.00
43987;DHT22;29650;47.378;8.300;2023-04-24T00:51:11;11.40;93.20
43987;DHT22;29650;47.378;8.300;2023-04-24T00:53:38;11.50;93.60
43987;DHT22;29650;47.378;8.300;2023-04-24T00:56:05;11.50;93.60
43987;DHT22;29650;47.378;8.300;2023-04-24T00:58:34;11.50;94.00
43987;DHT22;29650;47.378;8.300;2023-04-24T01:01:01;11.50;93.80
43987;DHT22;29650;47.378;8.300;2023-04-24T01:03:33;11.50;93.50
43987;DHT22;29650;47.378;8.300;2023-04-24T01:06:03;11.50;93.60
43987;DHT22;29650;47.378;8.300;2023-04-24T01:08:30;11.50;94.10
43987;DHT22;29650;47.378;8.300;2023-04-24T01:10:57;11.60;94.00
43987;DHT22;29650;47.378;8.300;2023-04-24T01:13:24;11.50;93.60
43987;DHT22;29650;47.378;8.300;2023-04-24T01:15:53;11.30;93.60
43987;DHT22;29650;47.378;8.300;2023-04-24T01:18:20;11.40;93.90
43987;DHT22;29650;47.378;8.300;2023-04-24T01:20:49;11.40;94.10
43987;DHT22;29650;47.378;8.300;2023-04-24T01:23:18;11.10;95.00
43987;DHT22;29650;47.378;8.300;2023-04-24T01:25:45;11.20;96.10
43987;DHT22;29650;47.378;8.300;2023-04-24T01:28:13;11.10;96.50
43987;DHT22;29650;47.378;8.300;2023-04-24T01:30:40;11.00;97.20
43987;DHT22;29650;47.378;8.300;2023-04-24T01:33:08;11.10;97.20
43987;DHT22;29650;47.378;8.300;2023-04-24T01:35:35;11.20;96.30
43987;DHT22;29650;47.378;8.300;2023-04-24T01:38:03;11.20;96.90
43987;DHT22;29650;47.378;8.300;2023-04-24T01:40:32;11.20;96.90
43987;DHT22;29650;47.378;8.300;2023-04-24T01:42:59;11.10;96.50
43987;DHT22;29650;47.378;8.300;2023-04-24T01:45:26;11.30;97.00
43987;DHT22;29650;47.378;8.300;2023-04-24T01:47:53;11.10;95.70
43987;DHT22;29650;47.378;8.300;2023-04-24T01:50:20;11.20;95.90
43987;DHT22;29650;47.378;8.300;2023-04-24T01:52:46;11.10;95.80
43987;DHT22;29650;47.378;8.300;2023-04-24T01:55:13;10.90;95.80
43987;DHT22;29650;47.378;8.300;2023-04-24T01:57:42;11.10;96.10
43987;DHT22;29650;47.378;8.300;2023-04-24T02:00:10;11.20;96.40
43987;DHT22;29650;47.378;8.300;2023-04-24T02:02:38;11.20;96.50
43987;DHT22;29650;47.378;8.300;2023-04-24T02:05:06;11.10;95.80
43987;DHT22;29650;47.378;8.300;2023-04-24T02:07:33;11.10;97.10
43987;DHT22;29650;47.378;8.300;2023-04-24T02:10:00;11.00;96.60
43987;DHT22;29650;47.378;8.300;2023-04-24T02:12:27;11.10;97.00
43987;DHT22;29650;47.378;8.300;2023-04-24T02:14:56;11.10;96.70
43987;DHT22;29650;47.378;8.300;2023-04-24T02:17:23;11.00;96.70
43987;DHT22;29650;47.378;8.300;2023-04-24T02:19:50;11.10;97.70
43987;DHT22;29650;47.378;8.300;2023-04-24T02:22:17;11.20;96.50
43987;DHT22;29650;47.378;8.300;2023-04-24T02:24:44;11.20;96.80
43987;DHT22;29650;47.378;8.300;2023-04-24T02:27:10;11.00;96.90
43987;DHT22;29650;47.378;8.300;2023-04-24T02:29:38;11.10;96.80
43987;DHT22;29650;47.378;8.300;2023-04-24T02:32:06;11.10;96.80
43987;DHT22;29650;47.378;8.300;2023-04-24T02:34:36;11.10;97.70
43987;DHT22;29650;47.378;8.300;2023-04-24T02:37:03;11.20;96.80
43987;DHT22;29650;47.378;8.300;2023-04-24T02:39:30;11.10;96.90
43987;DHT22;29650;47.378;8.300;2023-04-24T02:41:57;11.20;96.60
43987;DHT22;29650;47.378;8.300;2023-04-24T02:44:24;11.10;97.20
43987;DHT22;29650;47.378;8.300;2023-04-24T02:46:54;11.20;96.90
43987;DHT22;29650;47.378;8.300;2023-04-24T02:49:23;11.10;96.80
43987;DHT22;29650;47.378;8.300;2023-04-24T02:51:49;11.00;96.70
43987;DHT22;29650;47.378;8.300;2023-04-24T02:54:16;11.00;96.20
43987;DHT22;29650;47.378;8.300;2023-04-24T02:56:43;11.00;96.10
43987;DHT22;29650;47.378;8.300;2023-04-24T02:59:10;11.00;96.70
43987;DHT22;29650;47.378;8.300;2023-04-24T03:01:37;11.10;96.60
43987;DHT22;29650;47.378;8.300;2023-04-24T03:04:04;11.10;96.20
43987;DHT22;29650;47.378;8.300;2023-04-24T03:06:32;11.10;96.30
43987;DHT22;29650;47.378;8.300;2023-04-24T03:09:01;11.20;96.30
43987;DHT22;29650;47.378;8.300;2023-04-24T03:11:28;11.20;96.30
43987;DHT22;29650;47.378;8.300;2023-04-24T03:13:55;11.20;96.80
43987;DHT22;29650;47.378;8.300;2023-04-24T03:16:22;11.20;95.60
43987;DHT22;29650;47.378;8.300;2023-04-24T03:18:49;11.20;96.10
43987;DHT22;29650;47.378;8.300;2023-04-24T03:21:16;11.20;96.00
43987;DHT22;29650;47.378;8.300;2023-04-24T03:23:44;11.10;97.40
43987;DHT22;29650;47.378;8.300;2023-04-24T03:26:11;11.10;98.10
43987;DHT22;29650;47.378;8.300;2023-04-24T03:28:38;11.20;97.60
43987;DHT22;29650;47.378;8.300;2023-04-24T03:31:05;11.10;97.30
43987;DHT22;29650;47.378;8.300;2023-04-24T03:33:32;11.10;97.20
43987;DHT22;29650;47.378;8.300;2023-04-24T03:35:59;11.00;96.40
43987;DHT22;29650;47.378;8.300;2023-04-24T03:38:26;10.90;95.60
43987;DHT22;29650;47.378;8.300;2023-04-24T03:40:54;10.90;96.50
43987;DHT22;29650;47.378;8.300;2023-04-24T03:43:21;10.90;96.10
43987;DHT22;29650;47.378;8.300;2023-04-24T03:45:48;11.00;96.40
43987;DHT22;29650;47.378;8.300;2023-04-24T03:48:15;11.00;96.40
43987;DHT22;29650;47.378;8.300;2023-04-24T03:50:42;10.90;97.00
43987;DHT22;29650;47.378;8.300;2023-04-24T03:53:09;10.90;96.60
43987;DHT22;29650;47.378;8.300;2023-04-24T03:55:36;11.00;96.90
43987;DHT22;29650;47.378;8.300;2023-04-24T03:58:04;11.00;97.10
43987;DHT22;29650;47.378;8.300;2023-04-24T04:00:31;11.10;97.40
43987;DHT22;29650;47.378;8.300;2023-04-24T04:02:59;10.90;96.80
43987;DHT22;29650;47.378;8.300;2023-04-24T04:05:25;10.80;97.20
43987;DHT22;29650;47.378;8.300;2023-04-24T04:07:52;10.90;97.80
43987;DHT22;29650;47.378;8.300;2023-04-24T04:10:19;11.00;99.10
43987;DHT22;29650;47.378;8.300;2023-04-24T04:12:46;10.90;99.40
43987;DHT22;29650;47.378;8.300;2023-04-24T04:15:15;10.80;99.90
43987;DHT22;29650;47.378;8.300;2023-04-24T04:17:42;10.80;98.90
43987;DHT22;29650;47.378;8.300;2023-04-24T04:20:09;10.80;99.80
43987;DHT22;29650;47.378;8.300;2023-04-24T04:22:37;10.70;99.70
43987;DHT22;29650;47.378;8.300;2023-04-24T04:25:04;10.70;99.90
43987;DHT22;29650;47.378;8.300;2023-04-24T04:27:32;10.40;99.90
43987;DHT22;29650;47.378;8.300;2023-04-24T04:30:00;10.30;99.90
43987;DHT22;29650;47.378;8.300;2023-04-24T04:32:31;10.30;99.90
43987;DHT22;29650;47.378;8.300;2023-04-24T04:34:59;10.20;99.90
43987;DHT22;29650;47.378;8.300;2023-04-24T04:37:28;10.10;99.90
43987;DHT22;29650;47.378;8.300;2023-04-24T04:39:55;10.20;99.90
43987;DHT22;29650;47.378;8.300;2023-04-24T04:42:23;10.10;99.90
43987;DHT22;29650;47.378;8.300;2023-04-24T04:44:50;10.10;99.90
43987;DHT22;29650;47.378;8.300;2023-04-24T04:47:17;10.20;99.90
43987;DHT22;29650;47.378;8.300;2023-04-24T04:49:46;10.20;99.90
43987;DHT22;29650;47.378;8.300;2023-04-24T04:52:13;10.10;99.90
43987;DHT22;29650;47.378;8.300;2023-04-24T04:54:42;10.00;99.90
43987;DHT22;29650;47.378;8.300;2023-04-24T04:57:09;10.10;99.90
43987;DHT22;29650;47.378;8.300;2023-04-24T04:59:36;10.00;99.90
43987;DHT22;29650;47.378;8.300;2023-04-24T05:02:03;9.80;99.90
43987;DHT22;29650;47.378;8.300;2023-04-24T05:04:30;9.70;99.90
43987;DHT22;29650;47.378;8.300;2023-04-24T05:06:59;9.60;99.90
43987;DHT22;29650;47.378;8.300;2023-04-24T05:09:26;9.90;99.90
43987;DHT22;29650;47.378;8.300;2023-04-24T05:11:55;10.00;99.90
43987;DHT22;29650;47.378;8.300;2023-04-24T05:14:22;9.90;99.90
43987;DHT22;29650;47.378;8.300;2023-04-24T05:16:49;10.00;99.90
43987;DHT22;29650;47.378;8.300;2023-04-24T05:19:16;10.00;99.90
43987;DHT22;29650;47.378;8.300;2023-04-24T05:21:43;10.20;99.90
43987;DHT22;29650;47.378;8.300;2023-04-24T05:24:12;10.30;99.90
43987;DHT22;29650;47.378;8.300;2023-04-24T05:26:39;10.20;99.90
43987;DHT22;29650;47.378;8.300;2023-04-24T05:29:06;10.20;99.90
43987;DHT22;29650;47.378;8.300;2023-04-24T05:31:32;10.20;99.90
43987;DHT22;29650;47.378;8.300;2023-04-24T05:33:59;10.30;99.90
43987;DHT22;29650;47.378;8.300;2023-04-24T05:36:26;10.30;99.90
43987;DHT22;29650;47.378;8.300;2023-04-24T05:38:53;10.40;99.90
43987;DHT22;29650;47.378;8.300;2023-04-24T05:41:22;10.40;99.90
43987;DHT22;29650;47.378;8.300;2023-04-24T05:43:49;10.30;99.90
43987;DHT22;29650;47.378;8.300;2023-04-24T05:46:16;10.20;99.90
43987;DHT22;29650;47.378;8.300;2023-04-24T05:48:43;10.20;99.90
43987;DHT22;29650;47.378;8.300;2023-04-24T05:51:10;10.00;99.90
43987;DHT22;29650;47.378;8.300;2023-04-24T05:53:37;10.30;99.90
43987;DHT22;29650;47.378;8.300;2023-04-24T05:56:05;10.20;99.90
43987;DHT22;29650;47.378;8.300;2023-04-24T05:58:33;10.10;99.90
43987;DHT22;29650;47.378;8.300;2023-04-24T06:01:00;10.40;99.90
43987;DHT22;29650;47.378;8.300;2023-04-24T06:03:28;10.30;99.90
43987;DHT22;29650;47.378;8.300;2023-04-24T06:05:55;10.40;99.90
43987;DHT22;29650;47.378;8.300;2023-04-24T06:08:22;10.40;99.90
43987;DHT22;29650;47.378;8.300;2023-04-24T06:10:49;10.40;99.90
43987;DHT22;29650;47.378;8.300;2023-04-24T06:13:16;10.60;99.90
43987;DHT22;29650;47.378;8.300;2023-04-24T06:15:44;10.50;99.90
43987;DHT22;29650;47.378;8.300;2023-04-24T06:18:11;10.70;99.90
43987;DHT22;29650;47.378;8.300;2023-04-24T06:20:38;10.70;99.90
43987;DHT22;29650;47.378;8.300;2023-04-24T06:23:05;10.60;99.90
43987;DHT22;29650;47.378;8.300;2023-04-24T06:25:33;10.90;99.90
43987;DHT22;29650;47.378;8.300;2023-04-24T06:28:00;11.00;99.90
43987;DHT22;29650;47.378;8.300;2023-04-24T06:30:27;10.80;99.90
43987;DHT22;29650;47.378;8.300;2023-04-24T06:32:56;10.90;99.90
43987;DHT22;29650;47.378;8.300;2023-04-24T06:35:23;10.80;99.90
43987;DHT22;29650;47.378;8.300;2023-04-24T06:37:51;10.50;99.90
43987;DHT22;29650;47.378;8.300;2023-04-24T06:40:18;10.70;99.90
43987;DHT22;29650;47.378;8.300;2023-04-24T06:42:45;10.60;99.90
43987;DHT22;29650;47.378;8.300;2023-04-24T06:45:12;11.00;99.90
43987;DHT22;29650;47.378;8.300;2023-04-24T06:47:39;11.30;99.90
43987;DHT22;29650;47.378;8.300;2023-04-24T06:50:08;11.30;99.90
43987;DHT22;29650;47.378;8.300;2023-04-24T06:52:35;11.10;99.90
43987;DHT22;29650;47.378;8.300;2023-04-24T06:55:02;11.40;99.90
43987;DHT22;29650;47.378;8.300;2023-04-24T06:57:29;11.30;99.90
43987;DHT22;29650;47.378;8.300;2023-04-24T06:59:56;11.40;99.90
43987;DHT22;29650;47.378;8.300;2023-04-24T07:02:24;11.40;99.90
43987;DHT22;29650;47.378;8.300;2023-04-24T07:04:51;11.50;99.90
43987;DHT22;29650;47.378;8.300;2023-04-24T07:07:19;11.40;99.90
43987;DHT22;29650;47.378;8.300;2023-04-24T07:09:47;11.20;99.90
43987;DHT22;29650;47.378;8.300;2023-04-24T07:12:14;11.30;99.90
43987;DHT22;29650;47.378;8.300;2023-04-24T07:14:42;11.50;99.90
43987;DHT22;29650;47.378;8.300;2023-04-24T07:17:09;11.60;99.90
43987;DHT22;29650;47.378;8.300;2023-04-24T07:19:38;11.80;99.90
43987;DHT22;29650;47.378;8.300;2023-04-24T07:22:05;11.60;99.90
43987;DHT22;29650;47.378;8.300;2023-04-24T07:24:34;11.90;99.90
43987;DHT22;29650;47.378;8.300;2023-04-24T07:27:01;11.80;99.90
43987;DHT22;29650;47.378;8.300;2023-04-24T07:29:27;11.80;99.90
43987;DHT22;29650;47.378;8.300;2023-04-24T07:31:54;12.00;99.90
43987;DHT22;29650;47.378;8.300;2023-04-24T07:34:22;12.30;99.90
43987;DHT22;29650;47.378;8.300;2023-04-24T07:36:48;12.40;99.90
43987;DHT22;29650;47.378;8.300;2023-04-24T07:39:15;12.10;99.90
43987;DHT22;29650;47.378;8.300;2023-04-24T07:41:44;12.00;99.90
43987;DHT22;29650;47.378;8.300;2023-04-24T07:44:11;12.00;99.90
43987;DHT22;29650;47.378;8.300;2023-04-24T07:46:37;11.90;99.90
43987;DHT22;29650;47.378;8.300;2023-04-24T07:49:04;11.70;99.90
43987;DHT22;29650;47.378;8.300;2023-04-24T07:51:32;11.70;99.90
43987;DHT22;29650;47.378;8.300;2023-04-24T07:54:03;10.70;99.90
43987;DHT22;29650;47.378;8.300;2023-04-24T07:56:31;9.70;99.90
43987;DHT22;29650;47.378;8.300;2023-04-24T07:59:00;9.70;99.90
43987;DHT22;29650;47.378;8.300;2023-04-24T08:01:27;9.30;99.90
43987;DHT22;29650;47.378;8.300;2023-04-24T08:03:54;9.10;99.90
43987;DHT22;29650;47.378;8.300;2023-04-24T08:06:21;9.10;99.90
43987;DHT22;29650;47.378;8.300;2023-04-24T08:08:48;9.10;99.90
43987;DHT22;29650;47.378;8.300;2023-04-24T08:11:17;9.10;99.90
43987;DHT22;29650;47.378;8.300;2023-04-24T08:13:44;9.30;99.90
43987;DHT22;29650;47.378;8.300;2023-04-24T08:16:12;9.30;99.90
43987;DHT22;29650;47.378;8.300;2023-04-24T08:18:39;9.30;99.90
43987;DHT22;29650;47.378;8.300;2023-04-24T08:21:06;9.20;99.90
43987;DHT22;29650;47.378;8.300;2023-04-24T08:23:33;9.20;99.90
43987;DHT22;29650;47.378;8.300;2023-04-24T08:26:00;9.50;99.90
43987;DHT22;29650;47.378;8.300;2023-04-24T08:28:27;9.30;99.90
43987;DHT22;29650;47.378;8.300;2023-04-24T08:30:54;9.60;99.90
43987;DHT22;29650;47.378;8.300;2023-04-24T08:33:22;9.90;99.90
43987;DHT22;29650;47.378;8.300;2023-04-24T08:35:50;9.80;99.90
43987;DHT22;29650;47.378;8.300;2023-04-24T08:38:17;9.90;99.90
43987;DHT22;29650;47.378;8.300;2023-04-24T08:40:44;10.20;99.90
43987;DHT22;29650;47.378;8.300;2023-04-24T08:43:12;10.30;99.90
43987;DHT22;29650;47.378;8.300;2023-04-24T08:45:40;10.40;99.90
43987;DHT22;29650;47.378;8.300;2023-04-24T08:48:07;10.70;99.90
43987;DHT22;29650;47.378;8.300;2023-04-24T08:50:37;10.80;99.90
43987;DHT22;29650;47.378;8.300;2023-04-24T08:53:07;10.70;99.90
43987;DHT22;29650;47.378;8.300;2023-04-24T08:55:35;10.80;99.90
43987;DHT22;29650;47.378;8.300;2023-04-24T08:58:03;11.10;99.90
43987;DHT22;29650;47.378;8.300;2023-04-24T09:00:30;11.20;98.70
43987;DHT22;29650;47.378;8.300;2023-04-24T09:02:59;11.30;99.80
43987;DHT22;29650;47.378;8.300;2023-04-24T09:05:27;10.80;93.60
43987;DHT22;29650;47.378;8.300;2023-04-24T09:07:57;11.10;97.30
43987;DHT22;29650;47.378;8.300;2023-04-24T09:10:25;10.90;92.60
43987;DHT22;29650;47.378;8.300;2023-04-24T09:12:52;11.00;93.70
43987;DHT22;29650;47.378;8.300;2023-04-24T09:15:19;10.80;91.50
43987;DHT22;29650;47.378;8.300;2023-04-24T09:17:47;10.80;92.70
43987;DHT22;29650;47.378;8.300;2023-04-24T09:20:14;10.70;91.50
43987;DHT22;29650;47.378;8.300;2023-04-24T09:22:42;10.60;91.00
43987;DHT22;29650;47.378;8.300;2023-04-24T09:25:11;10.50;90.90
43987;DHT22;29650;47.378;8.300;2023-04-24T09:27:42;10.60;91.10
43987;DHT22;29650;47.378;8.300;2023-04-24T09:30:11;10.50;91.00
43987;DHT22;29650;47.378;8.300;2023-04-24T09:32:38;10.60;91.00
43987;DHT22;29650;47.378;8.300;2023-04-24T09:35:07;10.80;91.70
43987;DHT22;29650;47.378;8.300;2023-04-24T09:37:38;10.80;89.60
43987;DHT22;29650;47.378;8.300;2023-04-24T09:40:14;11.20;90.20
43987;DHT22;29650;47.378;8.300;2023-04-24T09:42:44;11.70;90.90
43987;DHT22;29650;47.378;8.300;2023-04-24T09:45:12;11.40;87.70
43987;DHT22;29650;47.378;8.300;2023-04-24T09:47:39;12.00;89.50
43987;DHT22;29650;47.378;8.300;2023-04-24T09:50:11;12.20;86.50
43987;DHT22;29650;47.378;8.300;2023-04-24T09:52:41;12.50;87.80
43987;DHT22;29650;47.378;8.300;2023-04-24T09:55:15;11.80;80.20
43987;DHT22;29650;47.378;8.300;2023-04-24T09:57:50;11.70;82.40
43987;DHT22;29650;47.378;8.300;2023-04-24T10:00:24;11.60;80.50
43987;DHT22;29650;47.378;8.300;2023-04-24T10:02:56;11.50;78.60
43987;DHT22;29650;47.378;8.300;2023-04-24T10:05:24;12.30;82.80
43987;DHT22;29650;47.378;8.300;2023-04-24T10:07:54;12.50;78.90
43987;DHT22;29650;47.378;8.300;2023-04-24T10:10:24;12.30;80.00
43987;DHT22;29650;47.378;8.300;2023-04-24T10:12:51;12.30;79.10
43987;DHT22;29650;47.378;8.300;2023-04-24T10:15:19;12.20;80.30
43987;DHT22;29650;47.378;8.300;2023-04-24T10:17:48;12.60;79.00
43987;DHT22;29650;47.378;8.300;2023-04-24T10:20:18;12.60;78.70
43987;DHT22;29650;47.378;8.300;2023-04-24T10:22:48;12.70;73.00
43987;DHT22;29650;47.378;8.300;2023-04-24T10:25:18;12.30;72.00
43987;DHT22;29650;47.378;8.300;2023-04-24T10:27:48;12.60;75.10
43987;DHT22;29650;47.378;8.300;2023-04-24T10:30:15;12.30;73.50
43987;DHT22;29650;47.378;8.300;2023-04-24T10:32:43;12.30;71.70
43987;DHT22;29650;47.378;8.300;2023-04-24T10:35:11;12.20;71.30
43987;DHT22;29650;47.378;8.300;2023-04-24T10:37:40;12.50;73.50
43987;DHT22;29650;47.378;8.300;2023-04-24T10:40:10;12.50;72.20
43987;DHT22;29650;47.378;8.300;2023-04-24T10:42:40;12.30;71.20
43987;DHT22;29650;47.378;8.300;2023-04-24T10:45:17;12.30;71.70
43987;DHT22;29650;47.378;8.300;2023-04-24T10:47:56;12.40;72.50
43987;DHT22;29650;47.378;8.300;2023-04-24T10:50:24;12.10;70.50
43987;DHT22;29650;47.378;8.300;2023-04-24T10:52:51;12.30;71.80
43987;DHT22;29650;47.378;8.300;2023-04-24T10:55:41;12.20;69.10
43987;DHT22;29650;47.378;8.300;2023-04-24T10:58:09;12.20;70.00
43987;DHT22;29650;47.378;8.300;2023-04-24T11:00:38;12.30;67.50
43987;DHT22;29650;47.378;8.300;2023-04-24T11:03:06;12.70;66.00
43987;DHT22;29650;47.378;8.300;2023-04-24T11:05:55;13.20;66.30
43987;DHT22;29650;47.378;8.300;2023-04-24T11:08:24;13.40;64.60
43987;DHT22;29650;47.378;8.300;2023-04-24T11:10:59;12.60;64.20
43987;DHT22;29650;47.378;8.300;2023-04-24T11:14:00;12.70;67.80
43987;DHT22;29650;47.378;8.300;2023-04-24T11:16:20;12.70;67.30
43987;DHT22;29650;47.378;8.300;2023-04-24T11:18:51;12.50;65.50
43987;DHT22;29650;47.378;8.300;2023-04-24T11:21:20;12.20;72.80
43987;DHT22;29650;47.378;8.300;2023-04-24T11:23:48;11.90;74.90
43987;DHT22;29650;47.378;8.300;2023-04-24T11:26:19;12.20;77.50
43987;DHT22;29650;47.378;8.300;2023-04-24T11:28:49;12.10;76.10
43987;DHT22;29650;47.378;8.300;2023-04-24T11:31:37;12.30;76.00
43987;DHT22;29650;47.378;8.300;2023-04-24T11:34:09;12.50;79.10
43987;DHT22;29650;47.378;8.300;2023-04-24T11:36:36;12.50;75.40
43987;DHT22;29650;47.378;8.300;2023-04-24T11:39:03;12.40;71.40
43987;DHT22;29650;47.378;8.300;2023-04-24T11:41:31;12.60;69.60
43987;DHT22;29650;47.378;8.300;2023-04-24T11:43:58;12.60;71.30
43987;DHT22;29650;47.378;8.300;2023-04-24T11:46:28;12.80;74.60
43987;DHT22;29650;47.378;8.300;2023-04-24T11:48:58;12.50;70.50
43987;DHT22;29650;47.378;8.300;2023-04-24T11:51:26;12.60;74.00
43987;DHT22;29650;47.378;8.300;2023-04-24T11:53:54;12.50;75.20
43987;DHT22;29650;47.378;8.300;2023-04-24T11:56:21;12.60;74.00
43987;DHT22;29650;47.378;8.300;2023-04-24T11:58:48;12.70;76.70
43987;DHT22;29650;47.378;8.300;2023-04-24T12:01:18;12.60;75.70
43987;DHT22;29650;47.378;8.300;2023-04-24T12:03:47;12.60;75.00
43987;DHT22;29650;47.378;8.300;2023-04-24T12:06:17;12.40;72.80
43987;DHT22;29650;47.378;8.300;2023-04-24T12:08:48;12.60;76.20
43987;DHT22;29650;47.378;8.300;2023-04-24T12:11:16;12.70;72.50
43987;DHT22;29650;47.378;8.300;2023-04-24T12:13:44;12.40;68.00
43987;DHT22;29650;47.378;8.300;2023-04-24T12:16:12;12.50;70.90
43987;DHT22;29650;47.378;8.300;2023-04-24T12:18:43;12.50;67.00
43987;DHT22;29650;47.378;8.300;2023-04-24T12:21:20;12.90;68.20
43987;DHT22;29650;47.378;8.300;2023-04-24T12:23:47;13.40;69.90
43987;DHT22;29650;47.378;8.300;2023-04-24T12:26:17;13.20;66.00
43987;DHT22;29650;47.378;8.300;2023-04-24T12:28:47;13.10;64.00
43987;DHT22;29650;47.378;8.300;2023-04-24T12:31:13;13.10;64.50
43987;DHT22;29650;47.378;8.300;2023-04-24T12:33:40;13.20;63.40
43987;DHT22;29650;47.378;8.300;2023-04-24T12:36:10;13.30;64.50
43987;DHT22;29650;47.378;8.300;2023-04-24T12:38:39;13.50;63.80
43987;DHT22;29650;47.378;8.300;2023-04-24T12:41:11;13.50;62.40
43987;DHT22;29650;47.378;8.300;2023-04-24T12:43:38;13.60;62.90
43987;DHT22;29650;47.378;8.300;2023-04-24T12:46:05;13.30;63.20
43987;DHT22;29650;47.378;8.300;2023-04-24T12:48:32;13.10;60.20
43987;DHT22;29650;47.378;8.300;2023-04-24T12:50:59;13.20;61.50
43987;DHT22;29650;47.378;8.300;2023-04-24T12:53:27;13.50;61.20
43987;DHT22;29650;47.378;8.300;2023-04-24T12:55:58;13.30;61.00
43987;DHT22;29650;47.378;8.300;2023-04-24T12:58:24;13.60;60.80
43987;DHT22;29650;47.378;8.300;2023-04-24T13:00:51;13.70;61.00
43987;DHT22;29650;47.378;8.300;2023-04-24T13:03:19;13.50;59.40
43987;DHT22;29650;47.378;8.300;2023-04-24T13:05:47;13.70;59.30
43987;DHT22;29650;47.378;8.300;2023-04-24T13:08:15;14.00;62.30
43987;DHT22;29650;47.378;8.300;2023-04-24T13:10:42;14.70;60.60
43987;DHT22;29650;47.378;8.300;2023-04-24T13:13:10;14.60;57.40
43987;DHT22;29650;47.378;8.300;2023-04-24T13:15:37;13.60;56.10
43987;DHT22;29650;47.378;8.300;2023-04-24T13:18:04;13.50;61.60
43987;DHT22;29650;47.378;8.300;2023-04-24T13:20:31;12.90;65.40
43987;DHT22;29650;47.378;8.300;2023-04-24T13:22:58;13.00;65.00
43987;DHT22;29650;47.378;8.300;2023-04-24T13:25:25;12.40;67.30
43987;DHT22;29650;47.378;8.300;2023-04-24T13:27:52;12.70;68.50
43987;DHT22;29650;47.378;8.300;2023-04-24T13:30:20;13.10;68.80
43987;DHT22;29650;47.378;8.300;2023-04-24T13:32:47;13.10;69.00
43987;DHT22;29650;47.378;8.300;2023-04-24T13:35:14;13.40;68.70
43987;DHT22;29650;47.378;8.300;2023-04-24T13:37:41;12.70;69.00
43987;DHT22;29650;47.378;8.300;2023-04-24T13:40:09;12.80;71.50
43987;DHT22;29650;47.378;8.300;2023-04-24T13:42:36;12.70;71.60
43987;DHT22;29650;47.378;8.300;2023-04-24T13:45:04;12.50;72.30
43987;DHT22;29650;47.378;8.300;2023-04-24T13:47:32;12.50;74.10
43987;DHT22;29650;47.378;8.300;2023-04-24T13:49:59;12.40;71.90
43987;DHT22;29650;47.378;8.300;2023-04-24T13:52:26;12.50;71.70
43987;DHT22;29650;47.378;8.300;2023-04-24T13:54:53;12.90;70.90
43987;DHT22;29650;47.378;8.300;2023-04-24T13:57:21;12.70;67.60
43987;DHT22;29650;47.378;8.300;2023-04-24T13:59:48;12.80;68.40
43987;DHT22;29650;47.378;8.300;2023-04-24T14:02:14;12.70;68.90
43987;DHT22;29650;47.378;8.300;2023-04-24T14:04:43;12.50;68.90
43987;DHT22;29650;47.378;8.300;2023-04-24T14:07:10;12.30;74.20
43987;DHT22;29650;47.378;8.300;2023-04-24T14:09:37;12.40;73.30
43987;DHT22;29650;47.378;8.300;2023-04-24T14:12:04;12.50;75.10
43987;DHT22;29650;47.378;8.300;2023-04-24T14:14:32;12.50;74.80
43987;DHT22;29650;47.378;8.300;2023-04-24T14:16:59;12.40;74.90
43987;DHT22;29650;47.378;8.300;2023-04-24T14:19:26;12.70;74.10
43987;DHT22;29650;47.378;8.300;2023-04-24T14:21:54;12.90;76.90
43987;DHT22;29650;47.378;8.300;2023-04-24T14:24:23;13.10;71.90
43987;DHT22;29650;47.378;8.300;2023-04-24T14:26:51;13.30;72.80
43987;DHT22;29650;47.378;8.300;2023-04-24T14:29:17;13.50;71.30
43987;DHT22;29650;47.378;8.300;2023-04-24T14:31:45;13.70;73.70
43987;DHT22;29650;47.378;8.300;2023-04-24T14:34:13;13.40;70.00
43987;DHT22;29650;47.378;8.300;2023-04-24T14:36:40;13.50;69.40
43987;DHT22;29650;47.378;8.300;2023-04-24T14:39:09;13.90;70.80
43987;DHT22;29650;47.378;8.300;2023-04-24T14:41:37;14.10;66.70
43987;DHT22;29650;47.378;8.300;2023-04-24T14:44:05;13.90;64.10
43987;DHT22;29650;47.378;8.300;2023-04-24T14:46:32;13.70;64.70
43987;DHT22;29650;47.378;8.300;2023-04-24T14:48:59;13.60;64.70
43987;DHT22;29650;47.378;8.300;2023-04-24T14:51:25;13.50;65.00
43987;DHT22;29650;47.378;8.300;2023-04-24T14:53:52;13.40;64.70
43987;DHT22;29650;47.378;8.300;2023-04-24T14:56:21;13.70;61.60
43987;DHT22;29650;47.378;8.300;2023-04-24T14:58:48;14.30;60.80
43987;DHT22;29650;47.378;8.300;2023-04-24T15:01:15;14.00;59.60
43987;DHT22;29650;47.378;8.300;2023-04-24T15:03:43;14.20;61.50
43987;DHT22;29650;47.378;8.300;2023-04-24T15:06:10;14.00;60.40
43987;DHT22;29650;47.378;8.300;2023-04-24T15:08:37;13.70;58.70
43987;DHT22;29650;47.378;8.300;2023-04-24T15:11:04;14.00;60.50
43987;DHT22;29650;47.378;8.300;2023-04-24T15:13:33;13.50;59.40
43987;DHT22;29650;47.378;8.300;2023-04-24T15:15:59;13.60;60.00
43987;DHT22;29650;47.378;8.300;2023-04-24T15:18:27;14.00;59.60
43987;DHT22;29650;47.378;8.300;2023-04-24T15:20:55;13.90;59.50
43987;DHT22;29650;47.378;8.300;2023-04-24T15:23:22;14.00;62.10
43987;DHT22;29650;47.378;8.300;2023-04-24T15:25:49;13.70;60.20
43987;DHT22;29650;47.378;8.300;2023-04-24T15:28:16;13.50;60.10
43987;DHT22;29650;47.378;8.300;2023-04-24T15:30:44;13.50;60.10
43987;DHT22;29650;47.378;8.300;2023-04-24T15:33:11;13.40;59.60
43987;DHT22;29650;47.378;8.300;2023-04-24T15:35:38;13.30;60.10
43987;DHT22;29650;47.378;8.300;2023-04-24T15:38:05;13.40;60.30